Time;durP1;ratioP1;P1;durP2;ratioP2;P2;SDS_P1;SDS_P2;PMS_P1;PMS_P2;Temp;Humidity;BMP_temperature;BMP_pressure;BME280_temperature;BME280_humidity;BME280_pressure;Samples;Min_cycle;Max_cycle;Signal;HPM_P1;HPM_P2
2024/03/04 00:02:01;;;;;;;20.80;11.90;;;9.10;78.00;;;;;;5007600;28;20216;-70
2024/03/04 00:04:26;;;;;;;14.30;9.30;;;9.10;78.10;;;;;;5009348;28;20239;-68
2024/03/04 00:06:52;;;;;;;17.73;9.87;;;9.00;77.80;;;;;;5010423;28;20503;-70
2024/03/04 00:09:17;;;;;;;15.20;9.30;;;9.10;77.40;;;;;;4989508;28;20197;-70
2024/03/04 00:11:44;;;;;;;23.90;11.20;;;9.00;77.00;;;;;;5007143;28;20223;-71
2024/03/04 00:14:10;;;;;;;24.47;12.20;;;9.00;76.70;;;;;;5010123;28;20586;-70
2024/03/04 00:16:36;;;;;;;15.63;9.20;;;9.00;77.30;;;;;;5010487;28;20421;-71
2024/03/04 00:19:02;;;;;;;18.33;9.53;;;9.00;76.80;;;;;;5014671;28;20413;-70
2024/03/04 00:21:27;;;;;;;20.03;9.37;;;9.10;76.10;;;;;;5007408;28;20213;-69
2024/03/04 00:23:53;;;;;;;16.13;8.80;;;9.10;75.90;;;;;;5010684;28;20439;-70
2024/03/04 00:26:19;;;;;;;20.87;9.60;;;9.00;76.40;;;;;;5010986;28;20182;-69
2024/03/04 00:28:45;;;;;;;20.63;10.67;;;9.00;76.50;;;;;;5009693;28;20548;-71
2024/03/04 00:31:12;;;;;;;25.23;12.70;;;8.90;76.80;;;;;;5007354;28;20198;-70
2024/03/04 00:33:38;;;;;;;22.33;12.30;;;8.90;77.40;;;;;;5009609;28;20197;-70
2024/03/04 00:36:06;;;;;;;21.13;10.80;;;8.80;78.00;;;;;;5010991;28;20417;-69
2024/03/04 00:38:32;;;;;;;21.67;9.90;;;8.80;78.40;;;;;;5010452;28;20798;-70
2024/03/04 00:40:58;;;;;;;21.67;10.63;;;8.80;78.40;;;;;;5007909;28;20509;-70
2024/03/04 00:43:23;;;;;;;21.00;11.60;;;8.90;77.70;;;;;;5013442;28;20431;-71
2024/03/04 00:45:49;;;;;;;16.63;8.73;;;8.90;77.40;;;;;;5015015;28;20421;-68
2024/03/04 00:48:15;;;;;;;20.43;9.80;;;8.90;77.30;;;;;;5015643;28;20186;-71
2024/03/04 00:50:40;;;;;;;18.37;9.80;;;8.80;76.70;;;;;;5009673;28;20599;-69
2024/03/04 00:53:06;;;;;;;18.20;8.53;;;8.80;77.30;;;;;;5012686;28;20772;-69
2024/03/04 00:55:31;;;;;;;18.77;9.10;;;8.70;77.00;;;;;;5014380;28;20186;-71
2024/03/04 00:57:57;;;;;;;15.80;9.60;;;8.70;77.30;;;;;;5014307;28;20189;-71
2024/03/04 01:00:23;;;;;;;17.07;9.07;;;8.80;77.00;;;;;;5010115;28;20186;-69
2024/03/04 01:02:49;;;;;;;20.13;9.27;;;8.80;76.70;;;;;;5017093;28;20312;-69
2024/03/04 01:05:15;;;;;;;18.47;10.20;;;8.70;76.70;;;;;;5014304;28;20412;-70
2024/03/04 01:07:41;;;;;;;18.70;10.57;;;8.70;77.10;;;;;;5012502;28;20928;-69
2024/03/04 01:10:07;;;;;;;21.20;10.83;;;8.80;77.40;;;;;;5013050;28;20421;-71
2024/03/04 01:12:33;;;;;;;18.27;11.00;;;8.80;78.00;;;;;;5010853;28;20217;-70
2024/03/04 01:14:59;;;;;;;15.93;9.43;;;8.70;78.10;;;;;;5013407;28;20444;-70
2024/03/04 01:17:25;;;;;;;18.13;9.90;;;8.60;78.40;;;;;;5012693;28;20498;-70
2024/03/04 01:19:51;;;;;;;17.33;10.40;;;8.60;78.70;;;;;;5012633;28;20178;-69
2024/03/04 01:22:17;;;;;;;21.10;11.63;;;8.50;79.00;;;;;;5009739;28;20217;-70
2024/03/04 01:24:44;;;;;;;19.57;10.90;;;8.50;78.90;;;;;;5012015;28;20416;-70
2024/03/04 01:27:13;;;;;;;22.67;10.73;;;8.40;79.20;;;;;;5012208;28;20424;-72
2024/03/04 01:29:42;;;;;;;22.87;11.00;;;8.60;79.00;;;;;;5013341;28;20528;-69
2024/03/04 01:32:09;;;;;;;23.93;12.70;;;8.60;79.00;;;;;;5009216;28;20455;-72
2024/03/04 01:34:38;;;;;;;25.10;12.60;;;8.50;79.90;;;;;;5011840;28;20812;-69
2024/03/04 01:37:07;;;;;;;22.93;11.87;;;8.40;80.20;;;;;;5011709;28;20446;-70
2024/03/04 01:39:33;;;;;;;23.97;12.67;;;8.40;80.60;;;;;;5013227;28;20504;-70
2024/03/04 01:42:00;;;;;;;22.40;11.50;;;8.40;80.90;;;;;;5008704;28;20837;-70
2024/03/04 01:44:33;;;;;;;28.47;12.10;;;8.40;80.90;;;;;;5011567;28;20483;-71
2024/03/04 01:47:02;;;;;;;23.33;11.93;;;8.50;80.90;;;;;;5011077;28;20428;-71
2024/03/04 01:49:28;;;;;;;22.43;12.17;;;8.50;80.30;;;;;;4996744;28;20829;-69
2024/03/04 01:51:55;;;;;;;21.90;12.10;;;8.50;80.30;;;;;;5013522;28;20453;-70
2024/03/04 01:54:21;;;;;;;21.37;10.87;;;8.40;79.90;;;;;;5010567;28;20464;-70
2024/03/04 01:56:47;;;;;;;23.37;11.20;;;8.40;79.90;;;;;;5011004;28;20440;-70
2024/03/04 01:59:13;;;;;;;23.30;11.63;;;8.40;79.90;;;;;;5011966;28;20421;-69
2024/03/04 02:01:39;;;;;;;23.60;13.20;;;8.40;80.00;;;;;;5009869;28;20508;-69
2024/03/04 02:04:04;;;;;;;24.97;12.00;;;8.40;80.20;;;;;;5009630;28;20220;-70
2024/03/04 02:06:31;;;;;;;29.00;13.67;;;8.40;80.30;;;;;;5011521;28;20182;-69
2024/03/04 02:08:57;;;;;;;25.40;11.40;;;8.40;80.50;;;;;;5011219;28;20760;-69
2024/03/04 02:11:23;;;;;;;21.40;10.83;;;8.40;80.50;;;;;;5006549;28;20543;-69
2024/03/04 02:13:49;;;;;;;21.83;12.10;;;8.50;80.50;;;;;;5011275;28;20465;-70
2024/03/04 02:16:15;;;;;;;27.73;14.00;;;8.60;79.90;;;;;;5013423;28;20432;-69
2024/03/04 02:18:40;;;;;;;25.50;12.60;;;8.50;79.90;;;;;;5011451;28;20416;-69
2024/03/04 02:21:07;;;;;;;24.03;12.03;;;8.50;80.00;;;;;;5008183;28;20804;-69
2024/03/04 02:23:33;;;;;;;21.13;12.20;;;8.60;80.20;;;;;;5011444;28;20186;-69
2024/03/04 02:25:59;;;;;;;28.43;13.20;;;8.50;80.20;;;;;;5011731;28;20966;-70
2024/03/04 02:28:28;;;;;;;21.43;10.50;;;8.50;80.30;;;;;;5011273;28;20194;-69
2024/03/04 02:30:59;;;;;;;26.33;11.73;;;8.50;80.20;;;;;;4991921;28;20197;-70
2024/03/04 02:33:26;;;;;;;18.37;11.23;;;8.40;80.20;;;;;;5011276;28;20468;-70
2024/03/04 02:35:52;;;;;;;20.90;11.53;;;8.30;80.60;;;;;;5011581;28;20421;-71
2024/03/04 02:38:18;;;;;;;22.63;12.43;;;8.30;80.80;;;;;;5012069;28;20444;-71
2024/03/04 02:40:44;;;;;;;21.43;11.50;;;8.40;80.60;;;;;;5006403;28;20475;-71
2024/03/04 02:43:11;;;;;;;23.40;12.87;;;8.30;80.50;;;;;;5011636;28;20443;-73
2024/03/04 02:45:38;;;;;;;21.90;12.10;;;8.30;80.50;;;;;;5013229;28;20425;-70
2024/03/04 02:48:05;;;;;;;23.37;12.10;;;8.10;80.60;;;;;;5015538;28;20424;-70
2024/03/04 02:50:33;;;;;;;22.90;12.20;;;8.10;80.90;;;;;;5012639;28;20452;-70
2024/03/04 02:52:58;;;;;;;24.73;13.87;;;7.90;80.90;;;;;;5009530;28;20547;-70
2024/03/04 02:55:24;;;;;;;23.97;12.20;;;7.90;81.40;;;;;;5011637;28;20511;-70
2024/03/04 02:57:49;;;;;;;30.27;13.80;;;7.80;81.70;;;;;;5010975;28;20651;-70
2024/03/04 03:00:16;;;;;;;21.43;12.23;;;7.70;82.10;;;;;;5012095;28;20178;-70
2024/03/04 03:02:41;;;;;;;23.57;13.23;;;7.70;82.20;;;;;;5009451;28;20193;-71
2024/03/04 03:05:07;;;;;;;25.60;12.60;;;7.70;82.50;;;;;;5011404;28;20440;-70
2024/03/04 03:07:33;;;;;;;20.93;12.00;;;7.80;82.50;;;;;;5010891;28;20178;-70
2024/03/04 03:09:58;;;;;;;25.43;12.80;;;7.80;82.40;;;;;;5011577;28;20190;-70
2024/03/04 03:12:24;;;;;;;20.43;10.60;;;7.80;82.20;;;;;;5009213;28;20471;-70
2024/03/04 03:14:49;;;;;;;19.80;10.17;;;7.90;82.10;;;;;;5010104;28;20646;-69
2024/03/04 03:17:15;;;;;;;24.63;12.67;;;7.90;81.90;;;;;;5010385;28;20231;-71
2024/03/04 03:19:41;;;;;;;20.93;11.97;;;7.90;81.80;;;;;;5010696;28;20269;-70
2024/03/04 03:22:07;;;;;;;24.00;12.90;;;7.80;81.80;;;;;;5008642;28;20190;-70
2024/03/04 03:24:32;;;;;;;21.90;11.97;;;7.80;81.90;;;;;;5010043;28;20193;-71
2024/03/04 03:26:58;;;;;;;23.10;11.50;;;7.80;81.90;;;;;;5010253;28;20190;-69
2024/03/04 03:29:23;;;;;;;20.63;10.80;;;7.80;81.80;;;;;;5010584;28;20178;-69
2024/03/04 03:31:49;;;;;;;22.70;11.00;;;7.80;81.90;;;;;;5008594;28;20209;-69
2024/03/04 03:34:14;;;;;;;20.97;12.47;;;7.80;81.90;;;;;;5010886;28;20560;-70
2024/03/04 03:36:43;;;;;;;23.23;12.40;;;7.80;81.80;;;;;;5010327;28;20565;-68
2024/03/04 03:39:09;;;;;;;20.47;11.57;;;7.80;81.90;;;;;;5010791;28;20189;-70
2024/03/04 03:41:41;;;;;;;24.83;12.50;;;7.80;81.90;;;;;;5007877;28;20499;-69
2024/03/04 03:44:07;;;;;;;27.50;13.50;;;7.90;82.10;;;;;;5010283;28;20816;-68
2024/03/04 03:46:34;;;;;;;23.50;13.30;;;7.90;82.10;;;;;;5012407;28;20459;-70
2024/03/04 03:48:59;;;;;;;25.63;12.60;;;8.10;82.40;;;;;;5010605;28;20944;-71
2024/03/04 03:51:25;;;;;;;22.90;12.37;;;8.10;81.80;;;;;;5007363;28;20567;-69
2024/03/04 03:53:50;;;;;;;27.30;13.63;;;8.20;81.90;;;;;;5009339;28;20557;-70
2024/03/04 03:56:17;;;;;;;24.53;11.30;;;8.20;81.70;;;;;;5009856;28;20236;-70
2024/03/04 03:58:43;;;;;;;23.93;12.00;;;8.30;81.70;;;;;;5009412;28;20260;-70
2024/03/04 04:01:10;;;;;;;28.47;13.77;;;8.40;81.20;;;;;;5007335;28;21177;-70
2024/03/04 04:03:35;;;;;;;25.53;13.10;;;8.50;80.80;;;;;;5009773;28;20212;-70
2024/03/04 04:06:01;;;;;;;23.77;12.40;;;8.40;80.60;;;;;;5013107;28;20455;-70
2024/03/04 04:08:27;;;;;;;25.00;11.70;;;8.40;80.80;;;;;;5009427;28;20182;-68
2024/03/04 04:10:54;;;;;;;28.10;12.77;;;8.40;80.90;;;;;;5008644;28;20453;-70
2024/03/04 04:13:20;;;;;;;26.03;12.33;;;8.40;80.80;;;;;;5009178;28;20217;-69
2024/03/04 04:15:46;;;;;;;26.60;13.07;;;8.40;80.60;;;;;;5009466;28;20793;-70
2024/03/04 04:18:11;;;;;;;31.83;14.10;;;8.30;80.90;;;;;;5015361;28;20435;-71
2024/03/04 04:20:37;;;;;;;30.70;13.80;;;8.20;81.70;;;;;;5013431;28;20210;-71
2024/03/04 04:23:03;;;;;;;26.73;13.30;;;8.20;82.10;;;;;;5016421;28;20630;-70
2024/03/04 04:25:29;;;;;;;30.33;13.97;;;8.20;81.90;;;;;;5019738;28;20181;-71
2024/03/04 04:27:55;;;;;;;27.40;13.87;;;8.20;82.40;;;;;;5013504;28;20488;-71
2024/03/04 04:30:21;;;;;;;27.07;12.50;;;8.10;82.40;;;;;;5015199;28;20174;-69
2024/03/04 04:32:48;;;;;;;29.40;13.33;;;8.20;82.50;;;;;;5013358;28;20464;-69
2024/03/04 04:35:13;;;;;;;28.53;14.03;;;8.20;82.50;;;;;;5015969;28;20208;-70
2024/03/04 04:37:41;;;;;;;29.83;14.17;;;8.20;82.80;;;;;;5015144;28;20471;-69
2024/03/04 04:40:09;;;;;;;34.90;15.47;;;8.30;82.40;;;;;;5016326;28;20206;-71
2024/03/04 04:42:35;;;;;;;32.73;15.80;;;8.30;82.50;;;;;;5018318;28;20473;-71
2024/03/04 04:45:01;;;;;;;29.50;13.30;;;8.30;82.50;;;;;;5016068;28;20427;-70
2024/03/04 04:47:27;;;;;;;30.80;14.40;;;8.30;82.40;;;;;;5015699;28;20193;-70
2024/03/04 04:49:53;;;;;;;36.27;16.33;;;8.30;82.50;;;;;;5015617;28;20197;-69
2024/03/04 04:52:18;;;;;;;27.73;14.47;;;8.40;82.50;;;;;;5015045;28;20259;-70
2024/03/04 04:54:44;;;;;;;31.70;14.83;;;8.30;82.80;;;;;;5016198;28;20420;-70
2024/03/04 04:57:10;;;;;;;33.10;15.00;;;8.30;82.80;;;;;;5016930;28;20190;-70
2024/03/04 04:59:36;;;;;;;31.20;15.83;;;8.40;83.10;;;;;;5016528;28;20431;-70
2024/03/04 05:02:01;;;;;;;35.33;15.37;;;8.40;82.70;;;;;;5013197;28;20197;-72
2024/03/04 05:04:27;;;;;;;33.37;14.80;;;8.40;82.70;;;;;;5015053;28;20202;-70
2024/03/04 05:06:52;;;;;;;36.80;16.07;;;8.40;82.50;;;;;;5012253;28;20194;-69
2024/03/04 05:09:18;;;;;;;35.20;15.73;;;8.40;82.50;;;;;;5015705;28;20653;-71
2024/03/04 05:11:44;;;;;;;37.40;16.47;;;8.50;82.80;;;;;;5012612;28;20237;-70
2024/03/04 05:14:09;;;;;;;38.70;15.90;;;8.50;82.70;;;;;;5014788;28;20216;-72
2024/03/04 05:16:35;;;;;;;33.63;16.37;;;8.50;83.00;;;;;;5014573;28;20174;-73
2024/03/04 05:19:02;;;;;;;38.40;16.40;;;8.50;83.00;;;;;;5012515;28;20188;-70
2024/03/04 05:21:28;;;;;;;43.80;18.27;;;8.40;83.10;;;;;;5011443;28;20210;-68
2024/03/04 05:23:53;;;;;;;34.90;16.20;;;8.50;83.30;;;;;;5014720;28;20799;-70
2024/03/04 05:26:19;;;;;;;40.43;15.70;;;8.50;83.30;;;;;;5015405;28;20188;-69
2024/03/04 05:28:44;;;;;;;39.47;17.57;;;8.50;83.30;;;;;;5011864;28;20186;-70
2024/03/04 05:31:10;;;;;;;40.73;17.20;;;8.50;83.30;;;;;;5009735;28;20198;-70
2024/03/04 05:33:36;;;;;;;44.73;19.73;;;8.60;83.40;;;;;;5011306;28;20275;-70
2024/03/04 05:36:04;;;;;;;42.10;17.43;;;8.60;83.40;;;;;;5012054;28;20736;-70
2024/03/04 05:38:31;;;;;;;40.50;18.30;;;8.70;83.10;;;;;;5011620;28;20182;-70
2024/03/04 05:40:57;;;;;;;36.23;16.70;;;8.60;83.00;;;;;;5009451;28;20471;-70
2024/03/04 05:43:22;;;;;;;38.00;17.57;;;8.70;83.40;;;;;;5011916;28;20421;-71
2024/03/04 05:45:48;;;;;;;41.63;17.53;;;8.70;82.80;;;;;;5012173;28;20197;-72
2024/03/04 05:48:14;;;;;;;47.07;19.20;;;8.80;82.80;;;;;;5012340;28;20232;-70
2024/03/04 05:50:40;;;;;;;44.93;18.73;;;8.70;82.80;;;;;;5009651;28;20230;-70
2024/03/04 05:53:05;;;;;;;48.07;20.70;;;8.70;83.10;;;;;;5011845;28;20463;-71
2024/03/04 05:55:31;;;;;;;53.50;20.77;;;8.80;83.10;;;;;;5012535;28;20177;-70
2024/03/04 05:57:56;;;;;;;50.40;21.40;;;8.80;83.10;;;;;;5011410;28;20193;-72
2024/03/04 06:00:23;;;;;;;54.03;21.37;;;8.80;83.40;;;;;;5011256;28;20603;-70
2024/03/04 06:02:48;;;;;;;59.83;23.63;;;8.80;83.40;;;;;;5009734;28;20190;-71
2024/03/04 06:05:14;;;;;;;57.27;23.40;;;8.90;83.60;;;;;;5012109;28;20804;-71
2024/03/04 06:07:41;;;;;;;61.00;24.57;;;8.90;83.40;;;;;;5012197;28;20659;-71
2024/03/04 06:10:07;;;;;;;62.83;23.27;;;9.00;83.30;;;;;;4995368;28;20252;-70
2024/03/04 06:12:33;;;;;;;58.77;25.43;;;8.90;83.10;;;;;;5008681;28;21137;-69
2024/03/04 06:14:59;;;;;;;63.63;26.30;;;8.90;83.30;;;;;;5011631;28;20468;-72
2024/03/04 06:17:26;;;;;;;50.23;21.57;;;8.80;83.70;;;;;;5010502;28;20479;-71
2024/03/04 06:19:52;;;;;;;57.60;23.93;;;8.90;83.80;;;;;;5011920;28;20186;-73
2024/03/04 06:22:18;;;;;;;62.40;26.20;;;8.90;83.60;;;;;;5010522;28;20551;-71
2024/03/04 06:24:43;;;;;;;56.33;24.00;;;8.90;83.70;;;;;;5011965;28;20198;-72
2024/03/04 06:27:09;;;;;;;59.07;24.87;;;8.90;83.70;;;;;;5011823;28;20197;-71
2024/03/04 06:29:35;;;;;;;62.57;25.40;;;8.80;83.80;;;;;;5011735;28;20238;-72
2024/03/04 06:32:04;;;;;;;68.23;25.30;;;9.00;83.80;;;;;;5008844;28;20202;-72
2024/03/04 06:34:30;;;;;;;66.70;25.40;;;8.90;83.70;;;;;;5008000;28;20206;-70
2024/03/04 06:36:57;;;;;;;63.40;27.80;;;9.00;83.70;;;;;;5010765;28;20511;-72
2024/03/04 06:39:23;;;;;;;61.17;25.83;;;8.90;83.80;;;;;;5011098;28;20421;-71
2024/03/04 06:41:49;;;;;;;65.53;27.17;;;8.90;84.00;;;;;;5008122;28;21046;-72
2024/03/04 06:44:15;;;;;;;70.23;27.33;;;9.00;84.00;;;;;;5010899;28;20812;-73
2024/03/04 06:46:40;;;;;;;59.93;26.47;;;8.90;83.70;;;;;;5010218;28;20444;-71
2024/03/04 06:49:06;;;;;;;69.27;28.67;;;8.90;84.00;;;;;;5011269;28;20487;-71
2024/03/04 06:51:35;;;;;;;67.17;27.43;;;8.90;84.00;;;;;;5007570;28;20210;-69
2024/03/04 06:54:04;;;;;;;62.53;26.57;;;9.00;84.00;;;;;;5010366;28;20291;-72
2024/03/04 06:56:30;;;;;;;71.60;29.73;;;9.00;83.80;;;;;;5012504;28;20421;-72
2024/03/04 06:59:02;;;;;;;68.57;27.50;;;8.90;83.80;;;;;;5009311;28;20445;-72
2024/03/04 07:01:28;;;;;;;71.93;26.30;;;8.90;84.00;;;;;;5008273;28;20452;-70
2024/03/04 07:03:55;;;;;;;65.20;26.40;;;8.90;84.10;;;;;;5010826;28;20781;-73
2024/03/04 07:06:21;;;;;;;69.63;27.73;;;9.00;84.00;;;;;;5010865;28;20825;-72
2024/03/04 07:08:47;;;;;;;62.20;26.40;;;8.90;84.00;;;;;;5011428;28;20504;-72
2024/03/04 07:11:13;;;;;;;68.47;25.50;;;8.90;84.30;;;;;;5008941;28;20543;-71
2024/03/04 07:13:42;;;;;;;69.67;29.13;;;8.90;84.30;;;;;;5000207;28;20761;-72
2024/03/04 07:16:08;;;;;;;78.23;28.90;;;8.90;84.10;;;;;;5011873;28;20782;-71
2024/03/04 07:18:36;;;;;;;64.07;26.03;;;8.90;84.30;;;;;;5009896;28;21156;-72
2024/03/04 07:21:02;;;;;;;66.50;27.77;;;8.80;84.40;;;;;;5007919;28;20468;-72
2024/03/04 07:23:28;;;;;;;73.37;28.27;;;8.80;84.70;;;;;;5010025;28;20425;-70
2024/03/04 07:25:54;;;;;;;66.47;26.33;;;8.90;84.70;;;;;;5009459;28;20448;-71
2024/03/04 07:28:20;;;;;;;63.40;26.20;;;8.90;84.60;;;;;;5010384;28;20209;-71
2024/03/04 07:30:51;;;;;;;69.37;26.03;;;8.90;84.40;;;;;;5008357;28;20551;-73
2024/03/04 07:33:17;;;;;;;74.07;28.60;;;8.90;84.60;;;;;;5011594;28;20459;-72
2024/03/04 07:35:42;;;;;;;69.23;27.60;;;8.90;84.40;;;;;;5010578;28;20429;-71
2024/03/04 07:38:09;;;;;;;69.63;27.20;;;9.00;84.40;;;;;;5009783;28;20678;-69
2024/03/04 07:40:35;;;;;;;68.97;28.33;;;9.00;84.40;;;;;;5007261;28;20255;-70
2024/03/04 07:43:03;;;;;;;64.93;26.83;;;9.00;84.40;;;;;;5009783;28;20933;-70
2024/03/04 07:45:32;;;;;;;67.00;28.40;;;9.00;84.40;;;;;;5010522;28;20182;-71
2024/03/04 07:47:57;;;;;;;69.67;27.03;;;9.00;84.30;;;;;;5010683;28;20429;-72
2024/03/04 07:50:23;;;;;;;72.37;26.93;;;9.00;84.30;;;;;;5008530;28;20436;-70
2024/03/04 07:52:50;;;;;;;63.60;26.17;;;9.00;84.30;;;;;;5010405;28;20237;-70
2024/03/04 07:55:16;;;;;;;68.20;27.37;;;9.00;84.10;;;;;;5014196;28;20514;-72
2024/03/04 07:57:43;;;;;;;69.43;28.47;;;8.90;84.30;;;;;;5009533;28;20424;-73
2024/03/04 08:00:15;;;;;;;64.20;25.03;;;8.90;84.60;;;;;;5010193;28;20913;-72
2024/03/04 08:02:44;;;;;;;73.73;27.40;;;8.90;84.70;;;;;;5007209;28;20440;-71
2024/03/04 08:05:10;;;;;;;61.63;25.93;;;8.90;84.70;;;;;;5010885;28;20507;-71
2024/03/04 08:07:37;;;;;;;58.70;23.93;;;9.00;84.70;;;;;;5009793;28;20443;-71
2024/03/04 08:10:06;;;;;;;67.70;27.20;;;9.00;84.60;;;;;;5011124;28;20421;-70
2024/03/04 08:12:33;;;;;;;59.43;24.67;;;9.00;84.40;;;;;;5009753;28;20790;-72
2024/03/04 08:14:58;;;;;;;68.13;25.87;;;9.00;84.40;;;;;;5010977;28;20951;-70
2024/03/04 08:17:26;;;;;;;52.50;24.30;;;9.00;84.40;;;;;;5009982;28;20408;-72
2024/03/04 08:19:54;;;;;;;66.97;27.40;;;9.00;84.40;;;;;;5009890;28;20185;-72
2024/03/04 08:22:20;;;;;;;61.60;25.03;;;9.00;84.70;;;;;;5007330;28;20452;-72
2024/03/04 08:24:45;;;;;;;61.00;25.97;;;9.10;84.70;;;;;;5010588;28;20432;-72
2024/03/04 08:27:11;;;;;;;58.77;25.37;;;9.10;84.70;;;;;;5011364;28;20663;-70
2024/03/04 08:29:37;;;;;;;71.63;26.13;;;9.00;84.70;;;;;;5011426;28;20547;-71
2024/03/04 08:32:04;;;;;;;67.27;24.03;;;9.00;84.70;;;;;;5014609;28;20719;-72
2024/03/04 08:34:31;;;;;;;69.20;27.10;;;9.00;84.90;;;;;;5012679;28;20252;-72
2024/03/04 08:36:57;;;;;;;65.17;26.33;;;8.90;84.70;;;;;;5011952;28;20425;-71
2024/03/04 08:39:23;;;;;;;59.13;24.50;;;8.90;85.00;;;;;;5012286;28;20451;-70
2024/03/04 08:41:48;;;;;;;72.13;27.73;;;9.10;85.20;;;;;;5008035;28;20206;-72
2024/03/04 08:44:15;;;;;;;65.97;27.33;;;9.20;85.00;;;;;;5010229;28;20425;-73
2024/03/04 08:46:41;;;;;;;70.20;27.70;;;9.10;84.90;;;;;;5010783;28;20206;-70
2024/03/04 08:49:06;;;;;;;68.70;26.70;;;9.00;85.00;;;;;;5011855;28;20455;-72
2024/03/04 08:51:32;;;;;;;73.43;27.30;;;9.00;85.60;;;;;;5007287;28;20960;-72
2024/03/04 08:53:58;;;;;;;76.37;29.67;;;8.90;85.70;;;;;;5009778;28;20214;-71
2024/03/04 08:56:24;;;;;;;73.03;27.53;;;9.00;86.00;;;;;;5009994;28;20507;-72
2024/03/04 08:58:50;;;;;;;66.07;26.97;;;9.00;86.20;;;;;;5010398;28;20178;-70
2024/03/04 09:01:17;;;;;;;73.77;28.93;;;9.00;86.30;;;;;;5008137;28;20460;-71
2024/03/04 09:03:43;;;;;;;72.53;27.63;;;9.00;86.60;;;;;;5010848;28;20424;-73
2024/03/04 09:06:19;;;;;;;70.77;28.93;;;9.10;86.80;;;;;;5017188;28;20487;-72
2024/03/04 09:08:45;;;;;;;75.00;27.73;;;9.00;86.60;;;;;;5017389;28;20187;-71
2024/03/04 09:11:11;;;;;;;79.77;29.47;;;9.00;86.80;;;;;;5011630;28;20487;-72
2024/03/04 09:13:37;;;;;;;74.33;27.60;;;8.90;87.00;;;;;;5013658;28;20496;-70
2024/03/04 09:16:04;;;;;;;71.97;29.20;;;9.00;87.10;;;;;;5014001;28;20174;-74
2024/03/04 09:18:30;;;;;;;75.57;28.73;;;9.00;86.90;;;;;;5014325;28;20277;-73
2024/03/04 09:20:56;;;;;;;67.60;27.37;;;8.90;86.80;;;;;;5013962;28;20472;-70
2024/03/04 09:23:23;;;;;;;69.50;28.90;;;9.00;87.00;;;;;;5013458;28;20421;-73
2024/03/04 09:25:49;;;;;;;76.17;30.63;;;9.00;87.00;;;;;;5014269;28;20426;-71
2024/03/04 09:28:14;;;;;;;70.90;26.67;;;9.00;86.80;;;;;;5014990;28;20544;-72
2024/03/04 09:30:40;;;;;;;76.87;30.23;;;9.20;86.80;;;;;;5012583;28;20219;-71
2024/03/04 09:33:07;;;;;;;79.67;28.00;;;9.40;86.50;;;;;;5013554;28;20213;-72
2024/03/04 09:35:36;;;;;;;71.13;27.80;;;9.50;86.00;;;;;;5014686;28;20178;-72
2024/03/04 09:38:01;;;;;;;72.10;27.97;;;9.50;85.50;;;;;;5004963;28;20487;-72
2024/03/04 09:40:27;;;;;;;71.10;26.27;;;9.40;85.00;;;;;;5013182;28;20413;-71
2024/03/04 09:42:53;;;;;;;74.07;27.40;;;9.50;84.60;;;;;;5015038;28;20183;-71
2024/03/04 09:45:19;;;;;;;85.47;32.90;;;9.40;84.40;;;;;;5017728;28;20182;-72
2024/03/04 09:47:56;;;;;;;79.40;31.63;;;9.20;84.70;;;;;;5018993;28;21038;-73
2024/03/04 09:50:22;;;;;;;99.10;33.23;;;9.10;85.20;;;;;;5021428;28;20563;-71
2024/03/04 09:52:54;;;;;;;90.90;34.20;;;9.20;85.50;;;;;;5011847;28;20499;-73
2024/03/04 09:55:20;;;;;;;91.73;34.47;;;9.20;85.30;;;;;;5012474;28;20424;-70
2024/03/04 09:57:46;;;;;;;78.73;32.00;;;8.90;85.30;;;;;;5012574;28;20413;-70
2024/03/04 10:00:16;;;;;;;88.57;33.93;;;9.10;85.70;;;;;;5012904;28;20530;-73
2024/03/04 10:02:45;;;;;;;82.60;31.13;;;9.10;85.50;;;;;;5014386;28;20467;-72
2024/03/04 10:05:14;;;;;;;100.73;34.43;;;9.30;85.30;;;;;;5013254;28;20467;-72
2024/03/04 10:07:41;;;;;;;92.93;35.00;;;9.30;84.70;;;;;;5012267;28;20425;-72
2024/03/04 10:10:10;;;;;;;80.57;31.13;;;9.40;84.40;;;;;;5017949;28;20417;-72
2024/03/04 10:12:36;;;;;;;91.50;33.10;;;9.50;84.10;;;;;;5009882;28;20464;-71
2024/03/04 10:15:09;;;;;;;98.93;33.70;;;9.50;83.80;;;;;;5011836;28;21006;-73
2024/03/04 10:17:38;;;;;;;85.00;32.00;;;9.50;83.60;;;;;;5012393;28;20186;-71
2024/03/04 10:20:05;;;;;;;88.40;30.40;;;9.20;83.70;;;;;;5012869;28;20420;-72
2024/03/04 10:22:38;;;;;;;98.80;35.23;;;9.40;83.80;;;;;;5009182;28;20495;-71
2024/03/04 10:25:07;;;;;;;92.30;32.67;;;9.20;83.80;;;;;;5011381;28;20841;-73
2024/03/04 10:27:34;;;;;;;92.37;34.33;;;9.20;84.30;;;;;;4993316;28;20520;-72
2024/03/04 10:30:21;;;;;;;94.70;33.83;;;9.30;84.30;;;;;;5012401;28;20429;-70
2024/03/04 10:32:57;;;;;;;89.53;32.50;;;9.20;84.30;;;;;;5010003;28;20516;-72
2024/03/04 10:35:27;;;;;;;83.77;31.87;;;9.30;84.30;;;;;;5012350;28;20420;-71
2024/03/04 10:37:59;;;;;;;93.67;33.60;;;9.20;84.10;;;;;;5011705;28;20420;-72
2024/03/04 10:40:25;;;;;;;89.03;35.23;;;9.30;84.30;;;;;;5014578;28;20429;-69
2024/03/04 10:42:50;;;;;;;83.43;32.07;;;9.30;84.30;;;;;;5010956;28;20427;-73
2024/03/04 10:45:16;;;;;;;91.17;32.80;;;9.40;84.10;;;;;;5013104;28;20182;-72
2024/03/04 10:47:44;;;;;;;93.60;34.10;;;9.50;84.00;;;;;;5011262;28;20209;-72
2024/03/04 10:50:10;;;;;;;82.90;32.20;;;9.60;83.30;;;;;;5011365;28;20198;-72
2024/03/04 10:52:36;;;;;;;95.33;31.60;;;9.60;83.00;;;;;;5008604;28;20515;-70
2024/03/04 10:55:02;;;;;;;99.87;34.17;;;9.60;83.10;;;;;;5011729;28;20413;-70
2024/03/04 10:57:29;;;;;;;87.50;31.00;;;9.50;83.10;;;;;;5011146;28;20433;-71
2024/03/04 10:59:57;;;;;;;78.07;30.57;;;9.50;83.30;;;;;;5006534;28;20186;-71
2024/03/04 11:03:04;;;;;;;84.67;28.40;;;9.60;83.30;;;;;;5008272;28;20826;-72
2024/03/04 11:05:34;;;;;;;104.63;34.50;;;9.60;83.10;;;;;;5009892;28;20421;-73
2024/03/04 11:08:18;;;;;;;89.60;32.37;;;9.40;83.30;;;;;;5011175;28;20422;-73
2024/03/04 11:10:49;;;;;;;94.43;34.70;;;9.30;83.80;;;;;;5007186;28;20452;-73
2024/03/04 11:13:39;;;;;;;88.10;32.17;;;9.50;84.30;;;;;;5010460;28;20550;-72
2024/03/04 11:16:37;;;;;;;90.10;34.77;;;9.50;84.10;;;;;;5013096;28;20417;-72
2024/03/04 11:19:19;;;;;;;89.77;31.90;;;9.40;84.10;;;;;;4991665;28;21147;-72
2024/03/04 11:21:46;;;;;;;89.73;35.00;;;9.40;84.30;;;;;;5013097;28;20460;-73
2024/03/04 11:24:14;;;;;;;95.10;34.60;;;9.40;84.40;;;;;;5011956;28;20495;-72
2024/03/04 11:26:41;;;;;;;99.47;34.33;;;9.40;84.30;;;;;;5010049;28;20420;-72
2024/03/04 11:29:08;;;;;;;98.47;36.07;;;9.40;84.60;;;;;;5011235;28;20772;-72
2024/03/04 11:31:34;;;;;;;96.17;35.30;;;9.40;84.70;;;;;;5007977;28;20456;-72
2024/03/04 11:34:08;;;;;;;84.13;31.67;;;9.30;84.70;;;;;;5010732;28;20465;-71
2024/03/04 11:36:35;;;;;;;94.97;34.10;;;9.30;85.00;;;;;;5008952;28;20181;-72
2024/03/04 11:39:05;;;;;;;81.13;30.13;;;9.50;84.40;;;;;;5011334;28;20425;-70
2024/03/04 11:41:45;;;;;;;80.20;30.03;;;9.70;84.10;;;;;;5008357;28;20460;-71
2024/03/04 11:44:16;;;;;;;81.80;30.77;;;9.70;83.40;;;;;;5011323;28;21168;-70
2024/03/04 11:46:44;;;;;;;89.33;32.10;;;9.70;83.10;;;;;;5009448;28;20488;-71
2024/03/04 11:49:29;;;;;;;71.00;30.03;;;9.90;83.30;;;;;;5010189;28;20429;-72
2024/03/04 11:52:07;;;;;;;82.30;31.77;;;10.00;82.80;;;;;;5003965;28;20575;-71
2024/03/04 11:54:33;;;;;;;80.27;31.90;;;10.00;82.20;;;;;;5010425;28;21425;-73
2024/03/04 11:57:00;;;;;;;87.90;32.60;;;10.00;81.80;;;;;;5010538;28;20561;-71
2024/03/04 11:59:25;;;;;;;78.77;31.20;;;10.00;81.90;;;;;;5011269;28;20479;-73
2024/03/04 12:01:52;;;;;;;79.83;28.40;;;9.70;81.80;;;;;;5007583;28;20480;-72
2024/03/04 12:04:19;;;;;;;78.20;28.50;;;9.80;82.70;;;;;;5011215;28;20429;-73
2024/03/04 12:06:47;;;;;;;82.27;30.23;;;9.70;82.40;;;;;;5013045;28;20428;-71
2024/03/04 12:09:16;;;;;;;84.17;30.87;;;9.70;82.80;;;;;;5011650;28;20421;-71
2024/03/04 12:11:41;;;;;;;80.43;29.47;;;9.70;83.00;;;;;;5007097;28;20996;-73
2024/03/04 12:14:08;;;;;;;78.20;29.93;;;9.80;82.80;;;;;;5010550;28;20464;-71
2024/03/04 12:16:33;;;;;;;78.80;29.97;;;9.80;82.40;;;;;;5009750;28;20182;-72
2024/03/04 12:19:00;;;;;;;76.97;29.87;;;9.90;82.20;;;;;;5009882;28;20417;-71
2024/03/04 12:21:27;;;;;;;73.10;29.07;;;9.90;82.10;;;;;;5003744;28;20217;-71
2024/03/04 12:23:55;;;;;;;77.77;29.20;;;10.00;81.90;;;;;;5010766;28;20934;-72
2024/03/04 12:26:21;;;;;;;79.40;29.50;;;10.10;81.90;;;;;;5010172;28;20795;-71
2024/03/04 12:29:00;;;;;;;79.60;28.83;;;9.90;81.50;;;;;;5011036;28;20424;-71
2024/03/04 12:31:26;;;;;;;82.43;29.67;;;9.90;82.10;;;;;;5009853;28;20461;-72
2024/03/04 12:33:56;;;;;;;67.00;26.73;;;10.00;81.80;;;;;;5011495;28;20507;-71
2024/03/04 12:36:27;;;;;;;82.87;29.40;;;10.00;81.70;;;;;;5011852;28;20424;-71
2024/03/04 12:38:56;;;;;;;80.07;28.63;;;9.80;81.90;;;;;;5014501;28;20416;-71